sensor_id;sensor_type;location;lat;lon;timestamp;pressure;altitude;pressure_sealevel;temperature;humidity
65384;BME280;51986;52.788;41.368;2023-07-09T00:01:17;98518.22;;;21.43;69.34
65384;BME280;51986;52.788;41.368;2023-07-09T00:03:46;98488.16;;;21.33;69.78
65384;BME280;51986;52.788;41.368;2023-07-09T00:06:14;98500.13;;;21.38;69.76
65384;BME280;51986;52.788;41.368;2023-07-09T00:08:43;98485.47;;;21.27;70.08
65384;BME280;51986;52.788;41.368;2023-07-09T00:11:11;98475.97;;;21.38;69.11
65384;BME280;51986;52.788;41.368;2023-07-09T00:13:38;98494.75;;;21.32;70.09
65384;BME280;51986;52.788;41.368;2023-07-09T00:16:13;98498.16;;;21.33;71.65
65384;BME280;51986;52.788;41.368;2023-07-09T00:18:40;98478.66;;;21.26;69.96
65384;BME280;51986;52.788;41.368;2023-07-09T00:21:07;98470.00;;;20.94;70.68
65384;BME280;51986;52.788;41.368;2023-07-09T00:23:34;98467.84;;;21.04;71.00
65384;BME280;51986;52.788;41.368;2023-07-09T00:26:01;98486.81;;;20.95;70.72
65384;BME280;51986;52.788;41.368;2023-07-09T00:28:28;98439.28;;;20.90;70.22
65384;BME280;51986;52.788;41.368;2023-07-09T00:30:55;98449.00;;;20.87;70.04
65384;BME280;51986;52.788;41.368;2023-07-09T00:33:22;98460.91;;;20.75;70.05
65384;BME280;51986;52.788;41.368;2023-07-09T00:35:49;98434.44;;;20.94;68.79
65384;BME280;51986;52.788;41.368;2023-07-09T00:38:21;98427.13;;;21.00;68.71
65384;BME280;51986;52.788;41.368;2023-07-09T00:41:16;98410.81;;;20.98;69.03
65384;BME280;51986;52.788;41.368;2023-07-09T00:43:46;98423.22;;;20.95;69.38
65384;BME280;51986;52.788;41.368;2023-07-09T00:49:07;98418.13;;;21.03;68.33
65384;BME280;51986;52.788;41.368;2023-07-09T00:51:41;98381.97;;;20.82;68.87
65384;BME280;51986;52.788;41.368;2023-07-09T00:54:27;98391.78;;;20.96;68.03
65384;BME280;51986;52.788;41.368;2023-07-09T00:56:58;98351.25;;;20.71;68.71
65384;BME280;51986;52.788;41.368;2023-07-09T00:59:28;98387.13;;;20.91;68.76
65384;BME280;51986;52.788;41.368;2023-07-09T01:01:58;98395.66;;;20.84;69.32
65384;BME280;51986;52.788;41.368;2023-07-09T01:04:25;98387.09;;;20.80;69.80
65384;BME280;51986;52.788;41.368;2023-07-09T01:06:55;98395.66;;;20.84;70.54
65384;BME280;51986;52.788;41.368;2023-07-09T01:09:24;98387.63;;;20.95;69.79
65384;BME280;51986;52.788;41.368;2023-07-09T01:11:52;98410.31;;;21.05;70.25
65384;BME280;51986;52.788;41.368;2023-07-09T01:14:20;98398.34;;;20.95;70.10
65384;BME280;51986;52.788;41.368;2023-07-09T01:16:54;98378.78;;;20.72;71.45
65384;BME280;51986;52.788;41.368;2023-07-09T01:19:27;98372.66;;;20.60;72.40
65384;BME280;51986;52.788;41.368;2023-07-09T01:21:56;98383.38;;;20.60;72.70
65384;BME280;51986;52.788;41.368;2023-07-09T01:25:01;98378.00;;;20.60;73.37
65384;BME280;51986;52.788;41.368;2023-07-09T01:27:38;98381.41;;;20.55;74.09
65384;BME280;51986;52.788;41.368;2023-07-09T01:30:15;98365.31;;;20.55;74.26
65384;BME280;51986;52.788;41.368;2023-07-09T01:32:43;98377.94;;;20.49;74.84
65384;BME280;51986;52.788;41.368;2023-07-09T01:35:11;98350.81;;;20.24;75.57
65384;BME280;51986;52.788;41.368;2023-07-09T01:37:38;98343.03;;;20.26;76.10
65384;BME280;51986;52.788;41.368;2023-07-09T01:40:07;98351.47;;;20.08;76.66
65384;BME280;51986;52.788;41.368;2023-07-09T01:42:56;98307.88;;;20.02;76.12
65384;BME280;51986;52.788;41.368;2023-07-09T01:45:23;98286.50;;;20.08;76.22
65384;BME280;51986;52.788;41.368;2023-07-09T01:47:50;98313.69;;;19.95;76.09
65384;BME280;51986;52.788;41.368;2023-07-09T01:50:17;98354.72;;;19.81;77.06
65384;BME280;51986;52.788;41.368;2023-07-09T01:52:45;98359.00;;;20.04;76.93
65384;BME280;51986;52.788;41.368;2023-07-09T01:55:14;98370.63;;;20.01;77.72
65384;BME280;51986;52.788;41.368;2023-07-09T01:57:41;98355.59;;;20.09;77.53
65384;BME280;51986;52.788;41.368;2023-07-09T02:00:11;98377.88;;;19.89;79.24
65384;BME280;51986;52.788;41.368;2023-07-09T02:02:44;98332.69;;;19.65;79.58
65384;BME280;51986;52.788;41.368;2023-07-09T02:05:15;98328.25;;;19.88;79.42
65384;BME280;51986;52.788;41.368;2023-07-09T02:07:42;98313.31;;;19.76;79.16
65384;BME280;51986;52.788;41.368;2023-07-09T02:10:11;98299.19;;;19.75;79.26
65384;BME280;51986;52.788;41.368;2023-07-09T02:12:38;98305.06;;;19.80;79.40
65384;BME280;51986;52.788;41.368;2023-07-09T02:15:05;98330.91;;;19.83;80.19
65384;BME280;51986;52.788;41.368;2023-07-09T02:17:32;98353.75;;;19.84;78.78
65384;BME280;51986;52.788;41.368;2023-07-09T02:20:00;98363.88;;;19.74;79.04
65384;BME280;51986;52.788;41.368;2023-07-09T02:22:27;98351.25;;;19.74;79.17
65384;BME280;51986;52.788;41.368;2023-07-09T02:24:54;98367.34;;;19.80;79.06
65384;BME280;51986;52.788;41.368;2023-07-09T02:27:21;98343.56;;;19.88;79.02
65384;BME280;51986;52.788;41.368;2023-07-09T02:29:48;98369.94;;;19.69;79.53
65384;BME280;51986;52.788;41.368;2023-07-09T02:32:23;98379.59;;;19.87;78.74
65384;BME280;51986;52.788;41.368;2023-07-09T02:34:52;98361.00;;;19.77;78.69
65384;BME280;51986;52.788;41.368;2023-07-09T02:37:21;98353.16;;;19.68;79.51
65384;BME280;51986;52.788;41.368;2023-07-09T02:39:49;98362.63;;;19.69;79.48
65384;BME280;51986;52.788;41.368;2023-07-09T02:42:18;98370.59;;;19.90;78.64
65384;BME280;51986;52.788;41.368;2023-07-09T02:44:46;98365.88;;;19.79;79.37
65384;BME280;51986;52.788;41.368;2023-07-09T02:47:14;98375.34;;;19.80;78.68
65384;BME280;51986;52.788;41.368;2023-07-09T02:49:41;98364.66;;;19.80;78.77
65384;BME280;51986;52.788;41.368;2023-07-09T02:52:09;98355.50;;;19.87;78.27
65384;BME280;51986;52.788;41.368;2023-07-09T02:54:36;98376.25;;;19.97;78.10
65384;BME280;51986;52.788;41.368;2023-07-09T02:57:04;98353.16;;;20.06;77.99
65384;BME280;51986;52.788;41.368;2023-07-09T02:59:31;98386.25;;;20.02;78.04
65384;BME280;51986;52.788;41.368;2023-07-09T03:01:59;98393.84;;;20.15;78.12
65384;BME280;51986;52.788;41.368;2023-07-09T03:04:26;98387.34;;;20.27;77.34
65384;BME280;51986;52.788;41.368;2023-07-09T03:06:53;98409.72;;;20.24;78.60
65384;BME280;51986;52.788;41.368;2023-07-09T03:09:20;98403.09;;;20.14;77.99
65384;BME280;51986;52.788;41.368;2023-07-09T03:11:47;98396.28;;;20.13;78.43
65384;BME280;51986;52.788;41.368;2023-07-09T03:14:14;98365.44;;;20.29;77.62
65384;BME280;51986;52.788;41.368;2023-07-09T03:16:42;98364.47;;;20.26;77.94
65384;BME280;51986;52.788;41.368;2023-07-09T03:19:09;98364.19;;;20.24;77.63
65384;BME280;51986;52.788;41.368;2023-07-09T03:21:36;98385.22;;;20.43;77.40
65384;BME280;51986;52.788;41.368;2023-07-09T03:24:04;98377.47;;;20.45;77.86
65384;BME280;51986;52.788;41.368;2023-07-09T03:26:31;98394.25;;;20.45;77.43
65384;BME280;51986;52.788;41.368;2023-07-09T03:28:58;98347.13;;;20.16;78.01
65384;BME280;51986;52.788;41.368;2023-07-09T03:31:26;98346.94;;;20.25;77.83
65384;BME280;51986;52.788;41.368;2023-07-09T03:33:53;98345.03;;;20.37;78.06
65384;BME280;51986;52.788;41.368;2023-07-09T03:36:20;98339.91;;;20.34;77.92
65384;BME280;51986;52.788;41.368;2023-07-09T03:38:48;98311.22;;;20.40;78.26
65384;BME280;51986;52.788;41.368;2023-07-09T03:41:15;98297.06;;;20.34;78.86
65384;BME280;51986;52.788;41.368;2023-07-09T03:43:43;98276.28;;;20.12;79.02
65384;BME280;51986;52.788;41.368;2023-07-09T03:46:10;98302.66;;;20.30;78.58
65384;BME280;51986;52.788;41.368;2023-07-09T03:48:37;98279.94;;;20.14;79.40
65384;BME280;51986;52.788;41.368;2023-07-09T03:51:05;98282.38;;;20.12;78.93
65384;BME280;51986;52.788;41.368;2023-07-09T03:53:32;98264.59;;;20.09;79.16
65384;BME280;51986;52.788;41.368;2023-07-09T03:55:59;98266.75;;;20.05;79.60
65384;BME280;51986;52.788;41.368;2023-07-09T03:58:27;98257.47;;;19.95;79.18
65384;BME280;51986;52.788;41.368;2023-07-09T04:00:54;98277.28;;;20.20;78.55
65384;BME280;51986;52.788;41.368;2023-07-09T04:03:22;98268.28;;;20.17;78.87
65384;BME280;51986;52.788;41.368;2023-07-09T04:05:49;98282.91;;;20.22;78.60
65384;BME280;51986;52.788;41.368;2023-07-09T04:08:17;98284.13;;;20.26;78.76
65384;BME280;51986;52.788;41.368;2023-07-09T04:10:44;98276.56;;;20.19;78.99
65384;BME280;51986;52.788;41.368;2023-07-09T04:13:12;98279.53;;;20.33;78.79
65384;BME280;51986;52.788;41.368;2023-07-09T04:15:39;98292.38;;;20.23;78.63
65384;BME280;51986;52.788;41.368;2023-07-09T04:18:06;98269.03;;;20.23;78.72
65384;BME280;51986;52.788;41.368;2023-07-09T04:20:33;98280.94;;;20.22;79.00
65384;BME280;51986;52.788;41.368;2023-07-09T04:23:00;98301.84;;;20.13;79.15
65384;BME280;51986;52.788;41.368;2023-07-09T04:25:27;98268.66;;;19.93;79.88
65384;BME280;51986;52.788;41.368;2023-07-09T04:27:55;98263.72;;;19.81;80.07
65384;BME280;51986;52.788;41.368;2023-07-09T04:30:22;98294.22;;;20.00;79.59
65384;BME280;51986;52.788;41.368;2023-07-09T04:32:49;98256.25;;;19.96;79.03
65384;BME280;51986;52.788;41.368;2023-07-09T04:35:16;98288.63;;;19.98;79.47
65384;BME280;51986;52.788;41.368;2023-07-09T04:37:43;98292.03;;;19.93;80.00
65384;BME280;51986;52.788;41.368;2023-07-09T04:40:12;98287.91;;;19.97;79.68
65384;BME280;51986;52.788;41.368;2023-07-09T04:42:40;98290.81;;;19.94;79.59
65384;BME280;51986;52.788;41.368;2023-07-09T04:45:09;98286.50;;;20.08;79.29
65384;BME280;51986;52.788;41.368;2023-07-09T04:47:37;98293.53;;;20.05;78.93
65384;BME280;51986;52.788;41.368;2023-07-09T04:50:06;98328.56;;;20.01;80.16
65384;BME280;51986;52.788;41.368;2023-07-09T04:52:33;98285.31;;;19.77;80.67
65384;BME280;51986;52.788;41.368;2023-07-09T04:55:00;98308.06;;;19.87;81.24
65384;BME280;51986;52.788;41.368;2023-07-09T04:57:28;98283.03;;;19.96;80.18
65384;BME280;51986;52.788;41.368;2023-07-09T04:59:55;98282.00;;;19.82;81.08
65384;BME280;51986;52.788;41.368;2023-07-09T05:02:23;98280.06;;;19.88;80.86
65384;BME280;51986;52.788;41.368;2023-07-09T05:04:50;98283.78;;;20.02;80.22
65384;BME280;51986;52.788;41.368;2023-07-09T05:07:18;98295.00;;;20.06;80.37
65384;BME280;51986;52.788;41.368;2023-07-09T05:09:44;98272.53;;;19.87;80.79
65384;BME280;51986;52.788;41.368;2023-07-09T05:12:12;98283.66;;;19.80;81.17
65384;BME280;51986;52.788;41.368;2023-07-09T05:14:39;98270.63;;;19.93;80.89
65384;BME280;51986;52.788;41.368;2023-07-09T05:17:07;98244.34;;;19.54;83.12
65384;BME280;51986;52.788;41.368;2023-07-09T05:19:35;98222.97;;;19.54;82.73
65384;BME280;51986;52.788;41.368;2023-07-09T05:22:02;98215.81;;;19.40;83.36
65384;BME280;51986;52.788;41.368;2023-07-09T05:24:29;98250.91;;;19.53;82.80
65384;BME280;51986;52.788;41.368;2023-07-09T05:26:57;98245.53;;;19.47;82.83
65384;BME280;51986;52.788;41.368;2023-07-09T05:29:27;98246.94;;;19.43;83.57
65384;BME280;51986;52.788;41.368;2023-07-09T05:31:54;98267.09;;;19.38;83.74
65384;BME280;51986;52.788;41.368;2023-07-09T05:34:21;98245.69;;;19.38;84.89
65384;BME280;51986;52.788;41.368;2023-07-09T05:36:48;98239.66;;;19.06;86.33
65384;BME280;51986;52.788;41.368;2023-07-09T05:39:15;98259.22;;;19.23;85.68
65384;BME280;51986;52.788;41.368;2023-07-09T05:41:43;98248.56;;;19.29;85.49
65384;BME280;51986;52.788;41.368;2023-07-09T05:44:10;98240.22;;;19.16;86.84
65384;BME280;51986;52.788;41.368;2023-07-09T05:46:38;98207.06;;;19.02;86.92
65384;BME280;51986;52.788;41.368;2023-07-09T05:49:07;98221.84;;;18.97;87.36
65384;BME280;51986;52.788;41.368;2023-07-09T05:51:34;98206.00;;;18.94;88.00
65384;BME280;51986;52.788;41.368;2023-07-09T05:54:02;98196.00;;;18.89;87.83
65384;BME280;51986;52.788;41.368;2023-07-09T05:56:29;98195.97;;;18.83;87.64
65384;BME280;51986;52.788;41.368;2023-07-09T05:58:56;98199.69;;;18.91;87.23
65384;BME280;51986;52.788;41.368;2023-07-09T06:01:24;98169.28;;;18.89;86.47
65384;BME280;51986;52.788;41.368;2023-07-09T06:03:51;98182.59;;;18.83;86.57
65384;BME280;51986;52.788;41.368;2023-07-09T06:06:18;98190.50;;;18.98;86.65
65384;BME280;51986;52.788;41.368;2023-07-09T06:08:46;98166.72;;;19.00;86.64
65384;BME280;51986;52.788;41.368;2023-07-09T06:11:13;98163.09;;;19.03;86.21
65384;BME280;51986;52.788;41.368;2023-07-09T06:13:40;98177.47;;;19.06;85.25
65384;BME280;51986;52.788;41.368;2023-07-09T06:16:07;98160.47;;;19.09;84.63
65384;BME280;51986;52.788;41.368;2023-07-09T06:18:35;98150.81;;;19.22;84.48
65384;BME280;51986;52.788;41.368;2023-07-09T06:21:02;98180.75;;;19.27;84.73
65384;BME280;51986;52.788;41.368;2023-07-09T06:23:30;98160.47;;;19.14;84.56
65384;BME280;51986;52.788;41.368;2023-07-09T06:25:57;98150.06;;;19.16;84.27
65384;BME280;51986;52.788;41.368;2023-07-09T06:28:26;98163.16;;;19.14;84.40
65384;BME280;51986;52.788;41.368;2023-07-09T06:30:54;98137.41;;;19.11;84.41
65384;BME280;51986;52.788;41.368;2023-07-09T06:33:23;98126.47;;;19.15;84.22
65384;BME280;51986;52.788;41.368;2023-07-09T06:35:55;98152.94;;;18.81;84.81
65384;BME280;51986;52.788;41.368;2023-07-09T06:38:22;98135.66;;;19.08;84.80
65384;BME280;51986;52.788;41.368;2023-07-09T06:40:50;98097.50;;;19.02;84.40
65384;BME280;51986;52.788;41.368;2023-07-09T06:43:17;98113.53;;;19.02;83.90
65384;BME280;51986;52.788;41.368;2023-07-09T06:45:49;98089.53;;;19.13;84.47
65384;BME280;51986;52.788;41.368;2023-07-09T06:48:17;98106.31;;;19.19;83.91
65384;BME280;51986;52.788;41.368;2023-07-09T06:50:44;98112.84;;;19.13;84.32
65384;BME280;51986;52.788;41.368;2023-07-09T06:53:11;98104.88;;;19.18;83.60
65384;BME280;51986;52.788;41.368;2023-07-09T06:55:38;98104.94;;;19.30;83.22
65384;BME280;51986;52.788;41.368;2023-07-09T06:58:05;98115.69;;;19.41;82.87
65384;BME280;51986;52.788;41.368;2023-07-09T07:00:37;98078.47;;;19.43;82.96
65384;BME280;51986;52.788;41.368;2023-07-09T07:03:08;98072.91;;;19.52;81.98
65384;BME280;51986;52.788;41.368;2023-07-09T07:05:44;98097.25;;;19.54;82.50
65384;BME280;51986;52.788;41.368;2023-07-09T07:08:14;98120.59;;;19.54;82.56
65384;BME280;51986;52.788;41.368;2023-07-09T07:10:41;98091.22;;;19.76;81.65
65384;BME280;51986;52.788;41.368;2023-07-09T07:13:10;98142.25;;;19.61;81.68
65384;BME280;51986;52.788;41.368;2023-07-09T07:15:38;98103.53;;;19.40;82.25
65384;BME280;51986;52.788;41.368;2023-07-09T07:18:06;97772.66;;;19.68;82.42
65384;BME280;51986;52.788;41.368;2023-07-09T07:20:34;98104.47;;;20.19;80.05
65384;BME280;51986;52.788;41.368;2023-07-09T07:23:01;98105.94;;;20.31;79.51
65384;BME280;51986;52.788;41.368;2023-07-09T07:25:28;98105.44;;;20.38;79.34
65384;BME280;51986;52.788;41.368;2023-07-09T07:27:55;98086.97;;;20.74;77.73
65384;BME280;51986;52.788;41.368;2023-07-09T07:30:22;98125.91;;;20.92;77.25
65384;BME280;51986;52.788;41.368;2023-07-09T07:32:52;98089.84;;;20.93;76.06
65384;BME280;51986;52.788;41.368;2023-07-09T07:35:19;98073.56;;;20.80;77.24
65384;BME280;51986;52.788;41.368;2023-07-09T07:37:46;98087.44;;;20.84;75.58
65384;BME280;51986;52.788;41.368;2023-07-09T07:40:13;98092.97;;;21.14;74.70
65384;BME280;51986;52.788;41.368;2023-07-09T07:42:40;98075.47;;;21.65;73.15
65384;BME280;51986;52.788;41.368;2023-07-09T07:45:08;98086.25;;;21.54;72.53
65384;BME280;51986;52.788;41.368;2023-07-09T07:47:35;98055.75;;;21.98;71.42
65384;BME280;51986;52.788;41.368;2023-07-09T07:50:05;98059.97;;;22.24;70.57
65384;BME280;51986;52.788;41.368;2023-07-09T07:52:33;98029.66;;;22.29;69.09
65384;BME280;51986;52.788;41.368;2023-07-09T07:55:00;98051.09;;;21.99;70.19
65384;BME280;51986;52.788;41.368;2023-07-09T07:57:27;98039.56;;;22.40;68.59
65384;BME280;51986;52.788;41.368;2023-07-09T07:59:54;98043.28;;;22.61;68.02
65384;BME280;51986;52.788;41.368;2023-07-09T08:02:21;98080.13;;;22.66;68.20
65384;BME280;51986;52.788;41.368;2023-07-09T08:04:48;98050.78;;;22.08;68.76
65384;BME280;51986;52.788;41.368;2023-07-09T08:07:18;98044.38;;;22.47;68.78
65384;BME280;51986;52.788;41.368;2023-07-09T08:09:46;98028.94;;;22.77;67.73
65384;BME280;51986;52.788;41.368;2023-07-09T08:12:24;98034.25;;;22.59;69.03
65384;BME280;51986;52.788;41.368;2023-07-09T08:15:05;98013.41;;;22.40;68.02
65384;BME280;51986;52.788;41.368;2023-07-09T08:17:35;98039.84;;;22.36;67.14
65384;BME280;51986;52.788;41.368;2023-07-09T08:20:06;98021.38;;;22.51;67.84
65384;BME280;51986;52.788;41.368;2023-07-09T08:22:33;98028.00;;;22.99;66.73
65384;BME280;51986;52.788;41.368;2023-07-09T08:25:00;97993.28;;;22.52;66.31
65384;BME280;51986;52.788;41.368;2023-07-09T08:27:27;98020.94;;;22.72;66.55
65384;BME280;51986;52.788;41.368;2023-07-09T08:29:53;98012.41;;;22.92;65.25
65384;BME280;51986;52.788;41.368;2023-07-09T08:32:20;97997.25;;;23.51;64.63
65384;BME280;51986;52.788;41.368;2023-07-09T08:34:48;97996.00;;;23.33;65.05
65384;BME280;51986;52.788;41.368;2023-07-09T08:37:35;97960.44;;;23.41;63.86
65384;BME280;51986;52.788;41.368;2023-07-09T08:40:02;97997.19;;;23.57;62.39
65384;BME280;51986;52.788;41.368;2023-07-09T08:42:40;97999.84;;;23.76;62.33
65384;BME280;51986;52.788;41.368;2023-07-09T08:48:09;98011.13;;;23.74;62.50
65384;BME280;51986;52.788;41.368;2023-07-09T08:50:52;98007.50;;;24.04;61.31
65384;BME280;51986;52.788;41.368;2023-07-09T08:53:34;98004.91;;;24.12;61.33
65384;BME280;51986;52.788;41.368;2023-07-09T08:56:03;97974.41;;;23.90;60.17
65384;BME280;51986;52.788;41.368;2023-07-09T08:58:31;98003.25;;;24.22;59.36
65384;BME280;51986;52.788;41.368;2023-07-09T09:01:02;97982.44;;;24.09;59.74
65384;BME280;51986;52.788;41.368;2023-07-09T09:03:51;97977.00;;;23.64;60.23
65384;BME280;51986;52.788;41.368;2023-07-09T09:06:28;97988.75;;;23.79;59.89
65384;BME280;51986;52.788;41.368;2023-07-09T09:09:26;97986.03;;;23.66;60.85
65384;BME280;51986;52.788;41.368;2023-07-09T09:14:43;97997.13;;;23.95;60.40
65384;BME280;51986;52.788;41.368;2023-07-09T09:17:14;97985.94;;;24.17;59.34
65384;BME280;51986;52.788;41.368;2023-07-09T09:20:02;97969.84;;;24.44;58.43
65384;BME280;51986;52.788;41.368;2023-07-09T09:25:31;97989.00;;;24.27;57.80
65384;BME280;51986;52.788;41.368;2023-07-09T09:28:02;98001.56;;;24.91;57.06
65384;BME280;51986;52.788;41.368;2023-07-09T09:30:31;97997.81;;;24.94;56.82
65384;BME280;51986;52.788;41.368;2023-07-09T09:33:00;97983.00;;;24.34;58.38
65384;BME280;51986;52.788;41.368;2023-07-09T09:35:30;97986.41;;;24.34;57.81
65384;BME280;51986;52.788;41.368;2023-07-09T09:37:58;98009.38;;;24.09;58.52
65384;BME280;51986;52.788;41.368;2023-07-09T09:40:28;97956.69;;;23.81;59.62
65384;BME280;51986;52.788;41.368;2023-07-09T09:43:13;97982.06;;;24.58;57.49
65384;BME280;51986;52.788;41.368;2023-07-09T09:45:43;97964.34;;;24.76;56.95
65384;BME280;51986;52.788;41.368;2023-07-09T09:48:33;97953.63;;;24.70;56.85
65384;BME280;51986;52.788;41.368;2023-07-09T09:51:03;97989.31;;;25.03;56.59
65384;BME280;51986;52.788;41.368;2023-07-09T09:53:38;97956.47;;;24.38;56.63
65384;BME280;51986;52.788;41.368;2023-07-09T09:56:13;97960.78;;;24.94;56.77
65384;BME280;51986;52.788;41.368;2023-07-09T09:58:41;97949.31;;;24.67;56.15
65384;BME280;51986;52.788;41.368;2023-07-09T10:01:15;97938.38;;;24.99;55.30
65384;BME280;51986;52.788;41.368;2023-07-09T10:03:42;97970.94;;;25.35;55.13
65384;BME280;51986;52.788;41.368;2023-07-09T10:06:49;97923.50;;;25.19;53.95
65384;BME280;51986;52.788;41.368;2023-07-09T10:14:47;97931.66;;;25.48;53.94
65384;BME280;51986;52.788;41.368;2023-07-09T10:17:29;97939.22;;;25.28;54.06
65384;BME280;51986;52.788;41.368;2023-07-09T10:23:28;97923.84;;;25.78;53.97
65384;BME280;51986;52.788;41.368;2023-07-09T10:26:11;97932.34;;;25.61;54.47
65384;BME280;51986;52.788;41.368;2023-07-09T10:29:14;97942.91;;;25.39;54.56
65384;BME280;51986;52.788;41.368;2023-07-09T10:31:56;97932.38;;;25.48;53.67
65384;BME280;51986;52.788;41.368;2023-07-09T10:34:38;97902.75;;;25.14;54.65
65384;BME280;51986;52.788;41.368;2023-07-09T10:39:46;97935.28;;;24.82;56.45
65384;BME280;51986;52.788;41.368;2023-07-09T10:42:25;97904.97;;;25.23;55.57
65384;BME280;51986;52.788;41.368;2023-07-09T10:45:01;97903.41;;;24.94;55.77
65384;BME280;51986;52.788;41.368;2023-07-09T10:47:59;97884.63;;;25.01;55.24
65384;BME280;51986;52.788;41.368;2023-07-09T10:50:32;97873.03;;;24.19;57.44
65384;BME280;51986;52.788;41.368;2023-07-09T10:53:14;97888.16;;;24.49;56.93
65384;BME280;51986;52.788;41.368;2023-07-09T10:56:17;97896.09;;;24.81;56.37
65384;BME280;51986;52.788;41.368;2023-07-09T11:01:49;97892.53;;;24.86;56.71
65384;BME280;51986;52.788;41.368;2023-07-09T11:04:31;97898.75;;;24.33;57.13
65384;BME280;51986;52.788;41.368;2023-07-09T11:07:04;97910.97;;;23.63;59.74
65384;BME280;51986;52.788;41.368;2023-07-09T11:09:36;97889.88;;;23.80;59.94
65384;BME280;51986;52.788;41.368;2023-07-09T11:12:32;97928.75;;;24.11;59.04
65384;BME280;51986;52.788;41.368;2023-07-09T11:15:17;97897.44;;;24.08;59.07
65384;BME280;51986;52.788;41.368;2023-07-09T11:17:46;97910.69;;;23.79;59.17
65384;BME280;51986;52.788;41.368;2023-07-09T11:20:25;97922.25;;;23.61;60.24
65384;BME280;51986;52.788;41.368;2023-07-09T11:23:02;97881.88;;;23.74;59.86
65384;BME280;51986;52.788;41.368;2023-07-09T11:25:44;97897.31;;;23.74;60.07
65384;BME280;51986;52.788;41.368;2023-07-09T11:28:12;97910.81;;;23.87;59.29
65384;BME280;51986;52.788;41.368;2023-07-09T11:30:52;97895.03;;;23.65;60.19
65384;BME280;51986;52.788;41.368;2023-07-09T11:33:26;97882.44;;;23.54;61.00
65384;BME280;51986;52.788;41.368;2023-07-09T11:36:07;97887.41;;;23.50;61.33
65384;BME280;51986;52.788;41.368;2023-07-09T11:38:46;97896.53;;;23.47;61.64
65384;BME280;51986;52.788;41.368;2023-07-09T11:44:22;97915.59;;;23.30;62.68
65384;BME280;51986;52.788;41.368;2023-07-09T11:52:31;97854.38;;;23.17;62.58
65384;BME280;51986;52.788;41.368;2023-07-09T11:55:26;97853.19;;;23.31;62.76
65384;BME280;51986;52.788;41.368;2023-07-09T11:58:00;97853.56;;;23.09;63.25
65384;BME280;51986;52.788;41.368;2023-07-09T12:00:30;97818.53;;;22.96;63.26
65384;BME280;51986;52.788;41.368;2023-07-09T12:03:01;97822.53;;;22.70;64.10
65384;BME280;51986;52.788;41.368;2023-07-09T12:05:29;97838.06;;;22.77;64.43
65384;BME280;51986;52.788;41.368;2023-07-09T12:07:57;97813.75;;;22.51;65.30
65384;BME280;51986;52.788;41.368;2023-07-09T12:10:28;97822.19;;;22.42;65.67
65384;BME280;51986;52.788;41.368;2023-07-09T12:12:59;97819.13;;;22.51;65.19
65384;BME280;51986;52.788;41.368;2023-07-09T12:15:28;97787.00;;;22.21;65.99
65384;BME280;51986;52.788;41.368;2023-07-09T12:18:01;97828.56;;;22.39;66.21
65384;BME280;51986;52.788;41.368;2023-07-09T12:20:31;97802.41;;;22.39;65.64
65384;BME280;51986;52.788;41.368;2023-07-09T12:22:58;97795.50;;;22.25;66.37
65384;BME280;51986;52.788;41.368;2023-07-09T12:25:33;97752.81;;;22.21;66.29
65384;BME280;51986;52.788;41.368;2023-07-09T12:28:00;97805.78;;;22.26;66.89
65384;BME280;51986;52.788;41.368;2023-07-09T12:30:32;97815.13;;;22.39;66.55
65384;BME280;51986;52.788;41.368;2023-07-09T12:32:59;97796.13;;;22.37;66.53
65384;BME280;51986;52.788;41.368;2023-07-09T12:35:28;97776.28;;;22.40;66.25
65384;BME280;51986;52.788;41.368;2023-07-09T12:37:56;97771.94;;;22.37;66.30
65384;BME280;51986;52.788;41.368;2023-07-09T12:40:27;97814.84;;;22.61;66.66
65384;BME280;51986;52.788;41.368;2023-07-09T12:42:56;97785.84;;;22.35;67.22
65384;BME280;51986;52.788;41.368;2023-07-09T12:45:23;97816.88;;;22.36;66.40
65384;BME280;51986;52.788;41.368;2023-07-09T12:47:51;97799.72;;;22.39;66.48
65384;BME280;51986;52.788;41.368;2023-07-09T12:52:56;97795.44;;;22.30;66.76
65384;BME280;51986;52.788;41.368;2023-07-09T12:55:28;97787.53;;;22.38;66.68
65384;BME280;51986;52.788;41.368;2023-07-09T12:57:56;97805.69;;;22.32;66.84
65384;BME280;51986;52.788;41.368;2023-07-09T13:00:29;97781.81;;;22.28;66.87
65384;BME280;51986;52.788;41.368;2023-07-09T13:02:58;97780.75;;;22.13;67.27
65384;BME280;51986;52.788;41.368;2023-07-09T13:05:26;97758.28;;;22.16;67.31
65384;BME280;51986;52.788;41.368;2023-07-09T13:07:58;97752.00;;;22.08;67.42
65384;BME280;51986;52.788;41.368;2023-07-09T13:10:31;97753.31;;;22.01;67.87
65384;BME280;51986;52.788;41.368;2023-07-09T13:13:03;97732.25;;;21.86;68.00
65384;BME280;51986;52.788;41.368;2023-07-09T13:18:07;97740.38;;;21.80;69.02
65384;BME280;51986;52.788;41.368;2023-07-09T13:20:40;97762.16;;;21.71;69.40
65384;BME280;51986;52.788;41.368;2023-07-09T13:23:14;97733.50;;;21.61;70.15
65384;BME280;51986;52.788;41.368;2023-07-09T13:25:42;97758.78;;;21.46;70.08
65384;BME280;51986;52.788;41.368;2023-07-09T13:28:24;97745.03;;;21.56;69.95
65384;BME280;51986;52.788;41.368;2023-07-09T13:30:57;97751.63;;;21.54;69.92
65384;BME280;51986;52.788;41.368;2023-07-09T13:33:24;97745.50;;;21.54;69.81
65384;BME280;51986;52.788;41.368;2023-07-09T13:35:51;97743.19;;;21.45;70.50
65384;BME280;51986;52.788;41.368;2023-07-09T13:38:20;97738.59;;;21.40;70.51
65384;BME280;51986;52.788;41.368;2023-07-09T13:40:51;97756.97;;;21.24;70.61
65384;BME280;51986;52.788;41.368;2023-07-09T13:43:33;97776.13;;;21.40;70.90
65384;BME280;51986;52.788;41.368;2023-07-09T13:46:02;97786.53;;;21.49;70.73
65384;BME280;51986;52.788;41.368;2023-07-09T13:48:32;97791.75;;;21.41;71.01